Time;durP1;ratioP1;P1;durP2;ratioP2;P2;SDS_P1;SDS_P2;PMS_P1;PMS_P2;Temp;Humidity;BMP_temperature;BMP_pressure;BME280_temperature;BME280_humidity;BME280_pressure;Samples;Min_cycle;Max_cycle;Signal;HPM_P1;HPM_P2
2023/12/22 00:02:51;;;;;;;0.00;0.00;;;;;;;3.31;70.13;98140.22;15661184;28;20049;-50
2023/12/22 00:10:25;;;;;;;0.00;0.00;;;;;;;3.58;69.32;98201.56;15662427;28;20041;-50
2023/12/22 00:18:00;;;;;;;2.00;1.30;;;;;;;3.55;68.33;98199.41;15650353;28;20064;-49
2023/12/22 00:25:33;;;;;;;0.00;0.00;;;;;;;3.53;68.18;98216.56;15654711;28;20041;-52
2023/12/22 00:33:08;;;;;;;;;;;;;;;3.53;69.98;98217.38;15663593;28;20436;-50
2023/12/22 00:40:41;;;;;;;0.00;0.00;;;;;;;3.38;72.44;98238.19;15647680;28;19974;-45
2023/12/22 00:48:16;;;;;;;0.00;0.00;;;;;;;3.17;75.00;98251.91;15645831;28;20057;-46
2023/12/22 00:55:49;;;;;;;0.00;0.00;;;;;;;3.04;75.82;98256.38;15632765;28;20238;-46
2023/12/22 01:03:24;;;;;;;0.00;0.00;;;;;;;3.05;75.72;98284.50;15660202;28;20045;-49
2023/12/22 01:10:58;;;;;;;1.55;1.38;;;;;;;3.34;75.18;98282.09;15638010;28;20505;-46
2023/12/22 01:18:33;;;;;;;;;;;;;;;3.28;75.03;98304.19;15642110;28;20497;-46
2023/12/22 01:26:07;;;;;;;0.10;0.10;;;;;;;3.28;75.31;98302.38;15643231;28;19921;-47
2023/12/22 01:33:43;;;;;;;0.00;0.00;;;;;;;3.16;75.84;98305.97;15653980;28;20068;-50
2023/12/22 01:41:16;;;;;;;0.00;0.00;;;;;;;3.26;75.16;98293.84;15641321;28;20041;-49
2023/12/22 01:48:53;;;;;;;1.65;1.55;;;;;;;3.28;75.27;98317.47;15659348;28;20053;-51
2023/12/22 01:56:27;;;;;;;0.00;0.00;;;;;;;3.23;75.62;98312.00;15654782;28;20052;-47
2023/12/22 02:04:03;;;;;;;0.00;0.00;;;;;;;3.36;75.75;98343.69;15668743;28;20064;-48
2023/12/22 02:11:38;;;;;;;0.17;0.17;;;;;;;3.40;75.74;98360.72;15663250;28;20068;-50
2023/12/22 02:19:35;;;;;;;0.00;0.00;;;;;;;3.26;76.20;98344.19;15676226;28;20132;-50
2023/12/22 02:27:22;;;;;;;0.00;0.00;;;;;;;3.48;75.33;98346.38;15661805;28;20033;-47
2023/12/22 02:34:57;;;;;;;3.63;1.75;;;;;;;3.55;74.62;98363.84;15650307;28;20037;-48
2023/12/22 02:42:33;;;;;;;1.08;1.00;;;;;;;3.62;73.82;98339.06;15672964;28;20043;-49
2023/12/22 02:50:08;;;;;;;0.00;0.00;;;;;;;3.47;74.42;98353.53;15638487;28;20240;-49
2023/12/22 02:57:44;;;;;;;0.20;0.15;;;;;;;3.43;74.79;98348.88;15657903;28;20382;-47
2023/12/22 03:05:17;;;;;;;2.72;2.13;;;;;;;3.48;74.50;98335.75;15666733;28;20037;-48
2023/12/22 03:12:52;;;;;;;0.00;0.00;;;;;;;3.43;75.14;98343.59;15663603;28;20098;-47
2023/12/22 03:20:25;;;;;;;0.00;0.00;;;;;;;2.95;76.00;98308.06;15645128;28;20064;-48
2023/12/22 03:28:01;;;;;;;0.00;0.00;;;;;;;3.27;75.65;98340.50;15662379;28;20051;-47
2023/12/22 03:35:34;;;;;;;0.00;0.00;;;;;;;3.32;75.21;98343.31;15668903;28;20044;-48
2023/12/22 03:43:09;;;;;;;;;;;;;;;3.33;74.29;98350.22;15661704;28;20041;-48
2023/12/22 03:50:42;;;;;;;0.00;0.00;;;;;;;3.46;74.28;98354.56;15649693;28;20397;-50
2023/12/22 03:58:18;;;;;;;0.00;0.00;;;;;;;3.30;75.37;98363.91;15670148;28;20443;-50
2023/12/22 04:05:51;;;;;;;0.00;0.00;;;;;;;3.30;77.06;98376.34;15650366;28;20044;-50
2023/12/22 04:13:26;;;;;;;0.00;0.00;;;;;;;3.04;79.21;98359.72;15651220;28;20040;-49
2023/12/22 04:21:00;;;;;;;0.08;0.08;;;;;;;2.96;80.15;98338.81;15652149;28;20579;-51
2023/12/22 04:28:36;;;;;;;0.00;0.00;;;;;;;3.11;80.62;98341.09;15648318;28;20121;-51
2023/12/22 04:36:10;;;;;;;0.00;0.00;;;;;;;2.99;80.97;98322.47;15660499;28;20056;-49
2023/12/22 04:43:45;;;;;;;0.00;0.00;;;;;;;2.51;83.65;98312.56;15662857;28;20083;-50
2023/12/22 04:51:20;;;;;;;0.00;0.00;;;;;;;2.17;85.46;98321.00;15637703;28;20466;-48
2023/12/22 04:58:54;;;;;;;0.00;0.00;;;;;;;1.87;85.87;98334.03;15666696;28;20048;-50
2023/12/22 05:06:28;;;;;;;0.00;0.00;;;;;;;1.68;87.39;98347.16;15662093;28;20056;-51
2023/12/22 05:14:03;;;;;;;0.00;0.00;;;;;;;1.64;88.16;98331.94;15665698;28;20548;-50
2023/12/22 05:21:37;;;;;;;0.00;0.00;;;;;;;1.88;87.74;98339.09;15669440;28;20072;-53
2023/12/22 05:29:12;;;;;;;0.00;0.00;;;;;;;1.82;87.77;98347.91;15668446;28;20080;-50
2023/12/22 05:36:46;;;;;;;0.00;0.00;;;;;;;2.10;86.72;98334.28;15661175;28;20096;-53
2023/12/22 05:44:29;;;;;;;0.00;0.00;;;;;;;2.13;86.22;98330.38;15672734;28;20351;-51
2023/12/22 05:52:03;;;;;;;0.00;0.00;;;;;;;1.94;83.99;98298.56;15744630;22;20051;-50
2023/12/22 05:59:44;;;;;;;0.00;0.00;;;;;;;2.15;82.11;98336.28;15787049;28;20052;-50
2023/12/22 06:07:20;;;;;;;0.00;0.00;;;;;;;2.09;81.31;98347.72;15705701;28;20521;-49
2023/12/22 06:14:55;;;;;;;0.15;0.15;;;;;;;1.98;81.36;98357.16;15725208;28;20094;-51
2023/12/22 06:22:29;;;;;;;0.00;0.00;;;;;;;2.12;81.00;98350.75;15742637;28;20127;-49
2023/12/22 06:30:07;;;;;;;;;;;;;;;2.13;81.29;98351.56;15734673;28;20449;-48
2023/12/22 06:37:40;;;;;;;0.00;0.00;;;;;;;1.97;83.28;98348.41;15742295;28;19924;-52
2023/12/22 06:45:16;;;;;;;0.00;0.00;;;;;;;2.01;83.31;98343.50;15740921;28;20146;-51
2023/12/22 06:52:51;;;;;;;0.00;0.00;;;;;;;2.37;82.43;98332.22;15721640;28;20071;-49
2023/12/22 07:00:26;;;;;;;0.00;0.00;;;;;;;2.33;81.78;98354.06;15741236;28;20501;-49
2023/12/22 07:08:00;;;;;;;0.00;0.00;;;;;;;2.52;79.44;98353.91;15739596;28;20049;-49
2023/12/22 07:15:37;;;;;;;0.00;0.00;;;;;;;2.68;78.51;98396.75;15722799;28;20284;-48
2023/12/22 07:23:14;;;;;;;0.00;0.00;;;;;;;2.60;78.69;98426.94;15739520;28;20127;-49
2023/12/22 07:30:49;;;;;;;11.60;1.30;;;;;;;2.74;77.85;98438.25;15739696;28;20068;-49
2023/12/22 07:38:23;;;;;;;0.00;0.00;;;;;;;2.75;76.21;98430.13;15722162;28;20040;-48
2023/12/22 07:45:58;;;;;;;0.00;0.00;;;;;;;2.90;76.48;98450.97;15738722;28;20064;-47
2023/12/22 07:53:34;;;;;;;0.00;0.00;;;;;;;2.87;76.26;98458.53;15736750;28;20080;-48
2023/12/22 08:01:11;;;;;;;0.00;0.00;;;;;;;2.78;76.06;98455.34;15737847;28;20485;-50
2023/12/22 08:08:45;;;;;;;0.00;0.00;;;;;;;2.52;78.71;98474.91;15736763;28;20056;-49
2023/12/22 08:16:19;;;;;;;0.00;0.00;;;;;;;2.18;81.16;98487.50;15735012;28;20499;-49
2023/12/22 08:23:53;;;;;;;0.03;0.03;;;;;;;2.06;81.16;98493.69;15729421;28;20048;-49
2023/12/22 08:31:27;;;;;;;;;;;;;;;1.94;81.16;98481.09;15736879;28;20044;-50
2023/12/22 08:39:00;;;;;;;0.00;0.00;;;;;;;2.12;79.85;98512.16;15735700;28;19921;-48
2023/12/22 08:46:35;;;;;;;;;;;;;;;2.34;77.50;98510.03;15736633;28;20186;-51
2023/12/22 08:54:09;;;;;;;0.00;0.00;;;;;;;2.62;76.37;98522.91;15735036;28;20352;-50
2023/12/22 09:01:45;;;;;;;0.00;0.00;;;;;;;2.74;74.15;98521.19;15734577;28;20496;-51
2023/12/22 09:09:18;;;;;;;0.25;0.25;;;;;;;3.02;72.01;98534.03;15743218;28;20098;-50
2023/12/22 09:16:55;;;;;;;0.00;0.00;;;;;;;2.99;71.65;98552.22;15746814;28;20491;-48
2023/12/22 09:24:29;;;;;;;0.00;0.00;;;;;;;3.47;69.05;98546.31;15730074;28;20047;-49
2023/12/22 09:32:05;;;;;;;0.00;0.00;;;;;;;4.11;68.71;98555.66;15746989;28;20389;-48
2023/12/22 09:39:39;;;;;;;0.00;0.00;;;;;;;4.11;67.41;98587.50;15729821;28;20393;-48
2023/12/22 09:47:14;;;;;;;;;;;;;;;4.59;65.91;98595.50;15746433;28;20068;-51
2023/12/22 09:54:49;;;;;;;0.10;0.10;;;;;;;4.42;65.21;98581.19;15709755;28;19951;-48
2023/12/22 10:02:27;;;;;;;0.00;0.00;;;;;;;4.64;63.98;98597.50;15744081;28;20045;-50
2023/12/22 10:10:02;;;;;;;0.00;0.00;;;;;;;4.70;63.20;98619.69;15724998;28;20056;-52
2023/12/22 10:17:42;;;;;;;0.05;0.05;;;;;;;4.87;62.84;98610.06;15724020;28;20455;-54
2023/12/22 10:25:16;;;;;;;0.05;0.05;;;;;;;4.77;62.79;98623.09;15740056;28;20495;-49
2023/12/22 10:32:52;;;;;;;0.25;0.25;;;;;;;5.20;62.22;98606.13;15739725;28;20532;-50
2023/12/22 10:40:26;;;;;;;0.00;0.00;;;;;;;4.66;64.37;98621.16;15724498;28;20090;-51
2023/12/22 10:48:01;;;;;;;0.00;0.00;;;;;;;4.93;63.74;98611.00;15743195;28;20041;-53
2023/12/22 10:55:35;;;;;;;0.00;0.00;;;;;;;4.95;62.86;98648.81;15741220;28;20106;-53
2023/12/22 11:03:17;;;;;;;0.20;0.20;;;;;;;4.51;63.10;98630.34;15739891;28;20048;-52
2023/12/22 11:10:58;;;;;;;0.00;0.00;;;;;;;4.98;62.95;98614.59;15741404;28;20066;-53
2023/12/22 11:18:36;;;;;;;0.00;0.00;;;;;;;5.29;61.87;98607.41;15740726;28;20127;-52
2023/12/22 11:26:12;;;;;;;0.20;0.20;;;;;;;5.15;61.94;98635.25;15740708;28;20048;-52
2023/12/22 11:33:51;;;;;;;0.00;0.00;;;;;;;5.68;61.56;98615.78;15719719;28;20424;-53
2023/12/22 11:41:28;;;;;;;0.00;0.00;;;;;;;5.23;63.06;98625.09;15736445;28;20084;-51
2023/12/22 11:49:03;;;;;;;0.00;0.00;;;;;;;4.98;63.11;98606.63;15720749;28;20043;-48
2023/12/22 11:56:36;;;;;;;0.00;0.00;;;;;;;5.52;61.72;98622.59;15736993;28;20049;-49
2023/12/22 12:04:11;;;;;;;0.00;0.00;;;;;;;5.43;61.61;98624.78;15719160;28;20076;-49
2023/12/22 12:12:10;;;;;;;0.05;0.05;;;;;;;5.57;60.61;98628.06;15736395;28;20049;-51
2023/12/22 12:19:45;;;;;;;0.00;0.00;;;;;;;4.96;62.62;98624.66;15734087;28;20049;-49
2023/12/22 12:27:20;;;;;;;0.00;0.00;;;;;;;4.80;63.40;98642.06;15735984;28;20045;-48
2023/12/22 12:34:56;;;;;;;0.10;0.10;;;;;;;5.20;62.14;98627.41;15733942;28;20047;-50
2023/12/22 12:42:31;;;;;;;0.00;0.00;;;;;;;4.91;64.39;98629.03;15716264;28;20047;-50
2023/12/22 12:50:06;;;;;;;0.00;0.00;;;;;;;4.68;65.51;98619.13;15710862;28;20586;-48
2023/12/22 12:57:41;;;;;;;0.00;0.00;;;;;;;4.58;66.45;98631.09;15727591;28;20044;-53
2023/12/22 13:05:23;;;;;;;0.00;0.00;;;;;;;4.38;65.74;98641.13;15734062;28;20405;-48
2023/12/22 13:12:58;;;;;;;0.00;0.00;;;;;;;4.44;64.49;98632.28;15734934;28;20032;-52
2023/12/22 13:20:35;;;;;;;0.00;0.00;;;;;;;4.37;64.23;98612.94;15735642;28;20110;-47
2023/12/22 13:28:08;;;;;;;0.10;0.10;;;;;;;4.59;64.79;98624.72;15718902;28;20048;-49
2023/12/22 13:35:43;;;;;;;0.00;0.00;;;;;;;4.63;64.66;98606.50;15732347;28;20048;-47
2023/12/22 13:43:16;;;;;;;0.00;0.00;;;;;;;4.33;67.91;98620.53;15737374;28;20041;-51
2023/12/22 13:50:57;;;;;;;;;;;;;;;3.96;68.82;98627.66;15736277;28;20052;-49
2023/12/22 13:58:44;;;;;;;0.00;0.00;;;;;;;3.91;69.15;98642.63;15746233;28;20333;-46
2023/12/22 14:06:18;;;;;;;0.00;0.00;;;;;;;3.50;68.89;98646.66;15741334;28;20040;-47
2023/12/22 14:13:52;;;;;;;0.00;0.00;;;;;;;3.58;68.83;98655.16;15744373;28;20086;-46
2023/12/22 14:21:27;;;;;;;0.00;0.00;;;;;;;3.42;68.45;98674.25;15711018;28;20049;-47
2023/12/22 14:29:00;;;;;;;0.00;0.00;;;;;;;3.35;68.30;98699.97;15745737;28;20041;-45
2023/12/22 14:36:35;;;;;;;;;;;;;;;3.31;68.49;98698.78;15727495;28;20519;-50
2023/12/22 14:44:08;;;;;;;0.88;0.73;;;;;;;3.25;68.98;98697.00;15743319;28;19954;-47
2023/12/22 14:51:43;;;;;;;0.00;0.00;;;;;;;3.28;69.01;98707.19;15743568;28;20048;-51
2023/12/22 14:59:16;;;;;;;0.00;0.00;;;;;;;3.33;68.94;98694.91;15726256;28;20056;-50
2023/12/22 15:06:52;;;;;;;0.00;0.00;;;;;;;3.37;69.24;98699.78;15741298;28;20047;-48
2023/12/22 15:14:26;;;;;;;0.00;0.00;;;;;;;3.38;69.80;98719.97;15741916;28;20493;-51
2023/12/22 15:22:01;;;;;;;0.00;0.00;;;;;;;3.65;69.77;98734.69;15741378;28;20397;-49
2023/12/22 15:29:34;;;;;;;0.00;0.00;;;;;;;3.58;69.76;98718.81;15742540;28;20402;-49
2023/12/22 15:37:10;;;;;;;0.00;0.00;;;;;;;3.42;70.81;98714.03;15742150;28;20055;-49
2023/12/22 15:44:44;;;;;;;0.00;0.00;;;;;;;3.36;71.91;98741.41;15739981;28;20037;-48
2023/12/22 15:52:19;;;;;;;0.00;0.00;;;;;;;3.35;72.55;98726.50;15721463;28;20464;-48
2023/12/22 15:59:53;;;;;;;0.00;0.00;;;;;;;3.17;73.32;98707.84;15722058;28;20556;-51
2023/12/22 16:07:28;;;;;;;0.00;0.00;;;;;;;3.29;73.12;98706.97;15720887;28;20113;-50
2023/12/22 16:15:02;;;;;;;0.13;0.13;;;;;;;3.35;71.95;98709.78;15738154;28;20120;-50
2023/12/22 16:22:40;;;;;;;0.00;0.00;;;;;;;3.46;70.52;98709.13;15721341;28;20437;-49
2023/12/22 16:30:13;;;;;;;0.00;0.00;;;;;;;3.43;69.72;98720.16;15735910;28;20285;-47
2023/12/22 16:37:53;;;;;;;0.00;0.00;;;;;;;3.56;69.96;98734.13;15736868;28;20052;-47
2023/12/22 16:45:26;;;;;;;0.15;0.15;;;;;;;3.48;70.34;98722.97;15733609;28;20433;-47
2023/12/22 16:53:01;;;;;;;0.03;0.03;;;;;;;3.60;70.25;98713.31;15735925;28;20406;-50
2023/12/22 17:00:34;;;;;;;0.00;0.00;;;;;;;3.66;70.87;98715.09;15737550;28;20127;-51
2023/12/22 17:08:09;;;;;;;;;;;;;;;3.64;70.73;98721.63;15739062;28;20131;-48
2023/12/22 17:15:44;;;;;;;0.00;0.00;;;;;;;3.52;71.09;98716.22;15717119;28;19931;-47
2023/12/22 17:23:21;;;;;;;0.00;0.00;;;;;;;3.60;69.68;98712.50;15732783;28;20040;-50
2023/12/22 17:30:55;;;;;;;0.00;0.00;;;;;;;3.42;69.79;98711.38;15735748;28;20056;-51
2023/12/22 17:38:31;;;;;;;0.00;0.00;;;;;;;3.37;69.84;98687.34;15743782;28;20094;-53
2023/12/22 17:46:05;;;;;;;0.00;0.00;;;;;;;3.56;69.11;98728.84;15745800;28;20131;-49
2023/12/22 17:53:41;;;;;;;0.00;0.00;;;;;;;3.48;68.84;98742.34;15746464;28;20098;-47
2023/12/22 18:01:14;;;;;;;0.00;0.00;;;;;;;3.70;68.16;98753.44;15747033;28;20301;-48
2023/12/22 18:08:49;;;;;;;0.08;0.08;;;;;;;3.60;69.10;98762.91;15728769;28;20059;-48
2023/12/22 18:16:22;;;;;;;0.20;0.20;;;;;;;3.56;68.92;98765.97;15745875;28;20123;-48
2023/12/22 18:23:57;;;;;;;;;;;;;;;3.87;68.88;98774.97;15744326;28;20036;-52
2023/12/22 18:31:31;;;;;;;0.00;0.00;;;;;;;3.65;69.08;98771.84;15724952;28;19927;-48
2023/12/22 18:39:05;;;;;;;;;;;;;;;3.65;69.23;98776.34;15726273;28;20052;-51
2023/12/22 18:46:39;;;;;;;0.00;0.00;;;;;;;3.75;68.89;98793.41;15743082;28;19921;-48
2023/12/22 18:54:13;;;;;;;0.00;0.00;;;;;;;3.65;69.93;98769.19;15742185;28;20495;-46
2023/12/22 19:01:48;;;;;;;0.00;0.00;;;;;;;3.55;71.04;98782.91;15723723;28;20045;-47
2023/12/22 19:09:23;;;;;;;;;;;;;;;3.53;71.45;98784.13;15724094;28;20405;-45
2023/12/22 19:16:56;;;;;;;0.00;0.00;;;;;;;3.55;71.89;98785.56;15705980;28;19920;-47
2023/12/22 19:24:31;;;;;;;0.00;0.00;;;;;;;3.53;72.47;98794.75;15721656;28;20037;-51
2023/12/22 19:32:05;;;;;;;0.43;0.43;;;;;;;3.61;71.61;98793.69;15704916;28;20258;-47
2023/12/22 19:39:40;;;;;;;0.00;0.00;;;;;;;3.92;70.15;98800.84;15738520;28;20040;-46
2023/12/22 19:47:14;;;;;;;0.00;0.00;;;;;;;3.65;69.12;98798.38;15719703;28;20045;-53
2023/12/22 19:54:48;;;;;;;0.00;0.00;;;;;;;3.61;66.67;98799.00;15733759;28;20136;-49
2023/12/22 20:02:24;;;;;;;0.05;0.05;;;;;;;3.72;65.46;98795.66;15737157;28;20040;-49
2023/12/22 20:09:59;;;;;;;0.00;0.00;;;;;;;3.65;66.71;98818.78;15736396;28;20090;-48
2023/12/22 20:17:34;;;;;;;0.00;0.00;;;;;;;3.35;71.24;98823.81;15704010;28;20056;-51
2023/12/22 20:25:10;;;;;;;0.00;0.00;;;;;;;2.83;76.58;98844.97;15736910;28;20409;-47
2023/12/22 20:32:47;;;;;;;0.00;0.00;;;;;;;2.88;78.43;98839.03;15718319;28;20448;-50
2023/12/22 20:40:22;;;;;;;0.00;0.00;;;;;;;2.67;81.38;98840.91;15718448;28;20122;-48
2023/12/22 20:47:56;;;;;;;0.00;0.00;;;;;;;2.59;81.10;98793.44;15736460;28;20045;-48
2023/12/22 20:55:30;;;;;;;0.00;0.00;;;;;;;2.62;81.25;98827.47;15736010;28;20048;-49
2023/12/22 21:03:07;;;;;;;0.00;0.00;;;;;;;2.59;81.36;98829.72;15716892;28;20147;-47
2023/12/22 21:10:45;;;;;;;0.00;0.00;;;;;;;2.57;81.40;98807.94;15735711;28;20037;-50
2023/12/22 21:18:23;;;;;;;0.10;0.10;;;;;;;2.38;82.29;98794.50;15735334;28;20072;-48
2023/12/22 21:25:58;;;;;;;;;;;;;;;2.29;83.16;98801.84;15733652;28;20040;-49
2023/12/22 21:33:31;;;;;;;0.00;0.00;;;;;;;2.46;82.25;98812.81;15734530;28;20300;-47
2023/12/22 21:41:06;;;;;;;;;;;;;;;2.55;81.19;98822.19;15735861;28;20094;-49
2023/12/22 21:48:41;;;;;;;0.00;0.00;;;;;;;1.78;81.59;98947.91;15732888;28;19924;-47
2023/12/22 21:56:21;;;;;;;0.00;0.00;;;;;;;0.97;83.16;98967.94;15718109;28;20041;-48
2023/12/22 22:03:54;;;;;;;0.00;0.00;;;;;;;0.61;84.70;98934.56;15733754;28;20276;-49
2023/12/22 22:11:29;;;;;;;0.00;0.00;;;;;;;0.57;86.89;98935.97;15735023;28;20048;-48
2023/12/22 22:19:04;;;;;;;0.25;0.20;;;;;;;0.80;86.38;98933.09;15727690;28;20044;-47
2023/12/22 22:26:41;;;;;;;0.00;0.00;;;;;;;0.80;85.91;98937.56;15746014;28;20095;-46
2023/12/22 22:34:15;;;;;;;0.00;0.00;;;;;;;0.99;85.28;98961.47;15727835;28;20386;-50
2023/12/22 22:41:50;;;;;;;0.00;0.00;;;;;;;1.19;83.83;98966.09;15727531;28;20281;-46
2023/12/22 22:49:26;;;;;;;0.00;0.00;;;;;;;0.83;86.82;98987.34;15726901;28;20043;-48
2023/12/22 22:57:00;;;;;;;;;;;;;;;0.72;86.64;98993.97;15726026;28;20132;-46
2023/12/22 23:04:33;;;;;;;0.00;0.00;;;;;;;0.69;87.08;98991.69;15742681;28;19921;-46
2023/12/22 23:12:08;;;;;;;;;;;;;;;0.69;87.20;98983.78;15724913;28;20079;-46
2023/12/22 23:19:41;;;;;;;0.00;0.00;;;;;;;0.99;87.49;99046.00;15742286;28;19959;-53
2023/12/22 23:27:16;;;;;;;0.00;0.00;;;;;;;1.06;86.02;99056.63;15724280;28;20041;-47
2023/12/22 23:34:50;;;;;;;0.00;0.00;;;;;;;0.77;87.39;99052.31;15741347;28;20044;-49
2023/12/22 23:42:24;;;;;;;0.00;0.00;;;;;;;0.97;86.46;99057.75;15740305;28;20052;-52
2023/12/22 23:49:59;;;;;;;0.00;0.00;;;;;;;1.10;85.76;99062.34;15740727;28;20055;-50
2023/12/22 23:57:34;;;;;;;0.00;0.00;;;;;;;0.98;87.09;99091.13;15721535;28;20355;-52
